Terminal Aerodrome Forecast
Issued by NWS Greer, SC

Home | Current Version | Previous Version | Text Only | Print | Product List | Glossary On
Versions: 1 2 3 4 5 6 7 8 9 10 11 12 13 14 15 16 17 18 19 20 21 22 23 24 25 26 27 28 29 30 31 32 33 34 35 36 37 38 39
000
FTUS42 KGSP 012101 AAA
TAFCLT
TAF AMD
KCLT 012101Z 0121/0218 18010KT P6SM SCT040 OVC120
     FM012200 18009KT P6SM OVC040
     FM020300 18013KT 4SM -SHRA SCT015 OVC025
     FM020600 20013G20KT 2SM -SHRA BR OVC007
     FM021200 22013G20KT P6SM -SHRA OVC020
     FM021400 26015G27KT P6SM BKN070=

USA.gov is the U.S. government's official web portal to all federal, state and local government web resources and services.